createdAt,value
2023-02-18T00:01:13.534Z,90.22
2023-02-18T00:03:44.063Z,90.20
2023-02-18T00:06:35.634Z,89.34
2023-02-18T00:09:06.821Z,89.68
2023-02-18T00:11:37.433Z,89.13
2023-02-18T00:14:13.785Z,89.06
2023-02-18T00:16:44.679Z,89.57
2023-02-18T00:19:20.005Z,89.92
2023-02-18T00:21:50.862Z,89.10
2023-02-18T00:24:22.810Z,89.79
2023-02-18T00:26:55.229Z,89.00
2023-02-18T00:29:26.471Z,90.47
2023-02-18T00:31:56.696Z,90.38
2023-02-18T00:34:26.616Z,90.90
2023-02-18T00:36:57.633Z,91.72
2023-02-18T00:39:27.207Z,91.01
2023-02-18T00:41:57.276Z,91.09
2023-02-18T00:44:27.642Z,91.61
2023-02-18T00:47:00.272Z,91.71
2023-02-18T00:49:30.760Z,91.67
2023-02-18T00:52:00.794Z,91.68
2023-02-18T00:54:30.803Z,91.80
2023-02-18T00:57:01.903Z,91.62
2023-02-18T00:59:36.774Z,91.81
2023-02-18T01:02:08.291Z,91.25
2023-02-18T01:04:37.588Z,91.41
2023-02-18T01:07:08.573Z,90.97
2023-02-18T01:09:40.139Z,91.53
2023-02-18T01:12:10.664Z,91.54
2023-02-18T01:14:41.316Z,91.79
2023-02-18T01:17:11.336Z,91.71
2023-02-18T01:19:43.605Z,91.18
2023-02-18T01:22:14.464Z,91.44
2023-02-18T01:24:49.368Z,91.70
2023-02-18T01:27:20.226Z,91.98
2023-02-18T01:29:49.926Z,92.01
2023-02-18T01:32:24.208Z,92.13
2023-02-18T01:34:53.619Z,91.99
2023-02-18T01:37:23.296Z,91.52
2023-02-18T01:39:54.194Z,91.50
2023-02-18T01:42:29.948Z,91.42
2023-02-18T01:45:39.672Z,91.77
2023-02-18T01:48:43.012Z,91.39
2023-02-18T01:51:18.113Z,91.29
2023-02-18T01:53:51.469Z,91.39
2023-02-18T01:56:26.451Z,90.99
2023-02-18T01:59:00.634Z,91.22
2023-02-18T02:01:32.865Z,91.62
2023-02-18T02:04:04.511Z,92.12
2023-02-18T02:06:33.679Z,91.81
2023-02-18T02:09:07.667Z,92.00
2023-02-18T02:12:08.915Z,92.66
2023-02-18T02:15:17.610Z,92.92
2023-02-18T02:17:56.023Z,92.79
2023-02-18T02:20:59.568Z,93.27
2023-02-18T02:23:59.249Z,92.73
2023-02-18T02:26:52.734Z,92.48
2023-02-18T02:30:24.957Z,92.41
2023-02-18T02:33:26.287Z,92.18
2023-02-18T02:36:16.768Z,92.14
2023-02-18T02:38:58.800Z,92.56
2023-02-18T02:41:52.374Z,92.10
2023-02-18T02:44:35.342Z,92.33
2023-02-18T02:47:58.001Z,93.02
2023-02-18T02:50:44.850Z,93.87
2023-02-18T02:53:31.101Z,94.44
2023-02-18T02:56:00.780Z,94.88
2023-02-18T02:58:35.473Z,93.94
2023-02-18T03:01:11.255Z,94.21
2023-02-18T03:04:11.119Z,94.61
2023-02-18T03:06:58.835Z,94.13
2023-02-18T03:10:00.710Z,94.73
2023-02-18T03:13:06.257Z,95.41
2023-02-18T03:15:58.043Z,95.32
2023-02-18T03:18:39.341Z,95.28
2023-02-18T03:21:11.674Z,96.11
2023-02-18T03:24:10.534Z,95.30
2023-02-18T03:26:49.269Z,95.90
2023-02-18T03:29:22.028Z,95.25
2023-02-18T03:31:58.125Z,94.97
2023-02-18T03:34:36.315Z,94.64
2023-02-18T03:37:10.374Z,94.77
2023-02-18T03:39:47.106Z,94.55
2023-02-18T03:42:26.168Z,94.66
2023-02-18T03:44:56.958Z,94.91
2023-02-18T03:47:26.726Z,94.23
2023-02-18T03:49:56.038Z,94.40
2023-02-18T03:52:25.844Z,94.36
2023-02-18T03:54:55.206Z,94.15
2023-02-18T03:57:25.245Z,94.27
2023-02-18T03:59:54.771Z,94.22
2023-02-18T04:02:24.193Z,94.73
2023-02-18T04:04:57.243Z,94.70
2023-02-18T04:07:28.390Z,94.71
2023-02-18T04:09:57.959Z,94.39
2023-02-18T04:12:27.916Z,94.45
2023-02-18T04:14:57.912Z,94.50
2023-02-18T04:17:28.008Z,94.52
2023-02-18T04:20:00.919Z,94.81
2023-02-18T04:22:33.143Z,94.26
2023-02-18T04:25:07.250Z,94.85
2023-02-18T04:27:37.070Z,95.04
2023-02-18T04:30:08.896Z,94.54
2023-02-18T04:32:42.357Z,94.41
2023-02-18T04:35:12.241Z,94.66
2023-02-18T04:37:42.529Z,94.13
2023-02-18T04:40:13.886Z,93.80
2023-02-18T04:42:44.363Z,93.95
2023-02-18T04:45:13.891Z,94.06
2023-02-18T04:47:44.594Z,94.37
2023-02-18T04:50:14.467Z,94.14
2023-02-18T04:52:43.968Z,93.83
2023-02-18T04:55:14.987Z,93.84
2023-02-18T04:57:44.631Z,93.83
2023-02-18T05:00:20.608Z,93.82
2023-02-18T05:02:49.619Z,94.06
2023-02-18T05:05:19.812Z,94.54
2023-02-18T05:07:49.695Z,94.88
2023-02-18T05:10:20.805Z,95.26
2023-02-18T05:12:51.060Z,94.80
2023-02-18T05:15:21.300Z,94.15
2023-02-18T05:17:51.934Z,94.25
2023-02-18T05:20:21.416Z,93.97
2023-02-18T05:22:51.357Z,94.08
2023-02-18T05:25:21.398Z,94.24
2023-02-18T05:27:51.336Z,94.05
2023-02-18T05:30:22.811Z,93.67
2023-02-18T05:32:52.663Z,93.71
2023-02-18T05:35:22.549Z,93.67
2023-02-18T05:37:52.437Z,93.38
2023-02-18T05:40:22.467Z,93.78
2023-02-18T05:42:51.975Z,93.51
2023-02-18T05:45:22.204Z,92.64
2023-02-18T05:47:54.705Z,92.79
2023-02-18T05:50:26.923Z,92.28
2023-02-18T05:52:58.418Z,92.32
2023-02-18T05:55:29.294Z,92.46
2023-02-18T05:57:58.936Z,92.81
2023-02-18T06:00:35.389Z,93.10
2023-02-18T06:03:07.565Z,92.80
2023-02-18T06:05:40.006Z,92.62
2023-02-18T06:08:12.534Z,92.64
2023-02-18T06:10:42.325Z,92.82
2023-02-18T06:13:19.255Z,92.75
2023-02-18T06:15:54.031Z,93.40
2023-02-18T06:18:26.018Z,93.13
2023-02-18T06:20:56.263Z,93.12
2023-02-18T06:23:28.525Z,93.07
2023-02-18T06:26:00.325Z,92.65
2023-02-18T06:28:31.014Z,93.13
2023-02-18T06:31:01.668Z,92.99
2023-02-18T06:33:36.441Z,92.61
2023-02-18T06:36:09.854Z,92.82
2023-02-18T06:38:45.675Z,93.50
2023-02-18T06:41:16.033Z,93.86
2023-02-18T06:43:46.177Z,94.24
2023-02-18T06:46:16.250Z,94.76
2023-02-18T06:48:45.848Z,94.63
2023-02-18T06:51:16.925Z,95.32
2023-02-18T06:53:47.714Z,95.91
2023-02-18T06:56:18.458Z,95.95
2023-02-18T06:58:53.136Z,96.12
2023-02-18T07:01:23.477Z,97.86
2023-02-18T07:03:53.674Z,100.00
2023-02-18T07:06:22.948Z,100.00
2023-02-18T07:08:53.214Z,100.00
2023-02-18T07:11:23.286Z,100.00
2023-02-18T07:13:53.779Z,100.00
2023-02-18T07:16:23.569Z,100.00
2023-02-18T07:18:53.537Z,100.00
2023-02-18T07:21:25.633Z,100.00
2023-02-18T07:23:55.168Z,100.00
2023-02-18T07:26:29.179Z,99.71
2023-02-18T07:29:00.028Z,97.85
2023-02-18T07:31:30.735Z,96.34
2023-02-18T07:34:00.415Z,94.43
2023-02-18T07:36:30.120Z,92.39
2023-02-18T07:39:00.341Z,89.97
2023-02-18T07:41:29.892Z,88.63
2023-02-18T07:44:04.460Z,88.16
2023-02-18T07:46:42.327Z,86.44
2023-02-18T07:49:12.342Z,85.78
2023-02-18T07:51:42.279Z,84.18
2023-02-18T07:54:12.990Z,83.54
2023-02-18T07:56:43.670Z,83.02
2023-02-18T07:59:15.127Z,82.15
2023-02-18T08:01:45.211Z,81.30
2023-02-18T08:04:15.905Z,80.41
2023-02-18T08:06:49.222Z,79.78
2023-02-18T08:09:19.111Z,79.61
2023-02-18T08:11:52.084Z,79.50
2023-02-18T08:14:22.295Z,79.06
2023-02-18T08:16:52.375Z,78.89
2023-02-18T08:19:24.046Z,78.14
2023-02-18T08:21:55.129Z,78.10
2023-02-18T08:25:03.116Z,77.87
2023-02-18T08:27:35.425Z,78.16
2023-02-18T08:30:08.135Z,78.32
2023-02-18T08:32:38.311Z,78.73
2023-02-18T08:35:13.419Z,78.12
2023-02-18T08:37:53.127Z,78.16
2023-02-18T08:40:26.057Z,78.74
2023-02-18T08:42:57.941Z,78.23
2023-02-18T08:45:27.608Z,77.79
2023-02-18T08:48:18.911Z,77.21
2023-02-18T08:50:48.850Z,77.64
2023-02-18T08:53:19.570Z,77.21
2023-02-18T08:55:49.464Z,76.55
2023-02-18T08:58:19.978Z,76.47
2023-02-18T09:00:49.359Z,76.37
2023-02-18T09:03:20.403Z,76.17
2023-02-18T09:05:50.254Z,75.80
2023-02-18T09:08:19.995Z,75.64
2023-02-18T09:10:49.758Z,75.62
2023-02-18T09:13:19.551Z,76.13
2023-02-18T09:16:14.124Z,75.89
2023-02-18T09:19:00.446Z,76.06
2023-02-18T09:21:30.836Z,75.93
2023-02-18T09:24:01.204Z,75.31
2023-02-18T09:26:49.403Z,75.54
2023-02-18T09:29:20.371Z,75.06
2023-02-18T09:31:51.222Z,74.71
2023-02-18T09:34:23.652Z,74.72
2023-02-18T09:36:55.693Z,74.28
2023-02-18T09:39:34.068Z,74.16
2023-02-18T09:42:11.049Z,74.21
2023-02-18T09:44:49.430Z,74.38
2023-02-18T09:47:39.490Z,73.37
2023-02-18T09:50:31.812Z,72.93
2023-02-18T09:53:04.492Z,72.74
2023-02-18T09:55:41.613Z,72.32
2023-02-18T09:58:18.197Z,71.77
2023-02-18T10:01:22.320Z,71.53
2023-02-18T10:03:52.827Z,71.84
2023-02-18T10:06:31.588Z,71.24
2023-02-18T10:09:24.975Z,70.72
2023-02-18T10:12:17.038Z,70.44
2023-02-18T10:14:54.739Z,70.31
2023-02-18T10:17:46.966Z,70.07
2023-02-18T10:20:39.792Z,69.62
2023-02-18T10:23:11.658Z,70.15
2023-02-18T10:25:46.866Z,69.65
2023-02-18T10:28:17.882Z,69.40
2023-02-18T10:30:58.560Z,68.96
2023-02-18T10:33:36.709Z,68.43
2023-02-18T10:36:32.146Z,68.55
2023-02-18T10:39:33.449Z,68.03
2023-02-18T10:42:17.818Z,66.78
2023-02-18T10:45:12.792Z,66.97
2023-02-18T10:48:01.289Z,66.37
2023-02-18T10:50:43.551Z,66.22
2023-02-18T10:53:22.954Z,66.06
2023-02-18T10:55:55.234Z,64.29
2023-02-18T10:58:35.955Z,63.57
2023-02-18T11:01:16.324Z,63.92
2023-02-18T11:04:06.087Z,63.64
2023-02-18T11:06:48.642Z,61.74
2023-02-18T11:09:36.688Z,61.78
2023-02-18T11:12:27.154Z,60.91
2023-02-18T11:15:18.340Z,60.27
2023-02-18T11:17:51.413Z,59.23
2023-02-18T11:20:30.488Z,59.19
2023-02-18T11:23:08.897Z,57.63
2023-02-18T11:25:42.132Z,56.96
2023-02-18T11:28:18.685Z,57.09
2023-02-18T11:30:54.938Z,56.45
2023-02-18T11:33:35.808Z,56.34
2023-02-18T11:36:15.782Z,55.86
2023-02-18T11:38:51.353Z,55.33
2023-02-18T11:41:31.839Z,54.62
2023-02-18T11:44:03.543Z,54.12
2023-02-18T11:46:34.506Z,53.44
2023-02-18T11:49:26.386Z,52.73
2023-02-18T11:52:16.343Z,52.74
2023-02-18T11:55:06.545Z,51.76
2023-02-18T11:57:41.994Z,51.51
2023-02-18T12:00:25.518Z,52.02
2023-02-18T12:02:59.204Z,51.63
2023-02-18T12:05:33.228Z,51.34
2023-02-18T12:08:19.228Z,51.37
2023-02-18T12:10:53.970Z,50.80
2023-02-18T12:13:35.155Z,49.68
2023-02-18T12:16:27.192Z,49.71
2023-02-18T12:19:21.770Z,49.48
2023-02-18T12:21:56.281Z,49.84
2023-02-18T12:25:10.817Z,50.38
2023-02-18T12:27:51.508Z,50.17
2023-02-18T12:30:53.444Z,50.27
2023-02-18T12:33:28.027Z,50.17
2023-02-18T12:36:07.593Z,50.80
2023-02-18T12:38:56.521Z,49.96
2023-02-18T12:41:45.362Z,49.03
2023-02-18T12:44:35.100Z,48.27
2023-02-18T12:47:23.669Z,47.22
2023-02-18T12:50:01.530Z,47.71
2023-02-18T12:53:05.282Z,47.79
2023-02-18T12:55:54.122Z,48.25
2023-02-18T12:58:35.172Z,47.95
2023-02-18T13:01:47.875Z,48.34
2023-02-18T13:04:26.556Z,48.82
2023-02-18T13:07:33.519Z,49.33
2023-02-18T13:10:24.465Z,49.67
2023-02-18T13:13:01.879Z,50.61
2023-02-18T13:15:33.766Z,51.03
2023-02-18T13:18:09.658Z,51.48
2023-02-18T13:20:47.118Z,51.60
2023-02-18T13:23:28.757Z,51.97
2023-02-18T13:26:02.860Z,52.21
2023-02-18T13:28:42.098Z,52.34
2023-02-18T13:31:53.049Z,52.47
2023-02-18T13:34:51.487Z,52.40
2023-02-18T13:37:34.666Z,52.69
2023-02-18T13:40:09.289Z,52.65
2023-02-18T13:42:39.580Z,52.70
2023-02-18T13:45:33.544Z,52.82
2023-02-18T13:48:27.507Z,53.01
2023-02-18T13:51:06.679Z,52.97
2023-02-18T13:53:43.407Z,53.11
2023-02-18T13:56:26.931Z,53.53
2023-02-18T13:59:11.461Z,53.45
2023-02-18T14:01:49.851Z,53.80
2023-02-18T14:04:56.758Z,54.06
2023-02-18T14:07:46.869Z,54.63
2023-02-18T14:10:19.748Z,55.08
2023-02-18T14:13:42.209Z,55.30
2023-02-18T14:16:12.793Z,55.64
2023-02-18T14:18:51.151Z,55.80
2023-02-18T14:21:37.541Z,56.35
2023-02-18T14:24:10.932Z,56.68
2023-02-18T14:26:49.481Z,57.13
2023-02-18T14:29:31.578Z,57.50
2023-02-18T14:32:05.425Z,57.62
2023-02-18T14:34:46.682Z,57.98
2023-02-18T14:37:44.380Z,58.01
2023-02-18T14:40:37.112Z,58.32
2023-02-18T14:43:32.177Z,58.33
2023-02-18T14:46:11.297Z,58.75
2023-02-18T14:48:58.529Z,58.77
2023-02-18T14:51:32.249Z,59.09
2023-02-18T14:54:15.583Z,59.67
2023-02-18T14:57:01.445Z,59.60
2023-02-18T14:59:44.751Z,60.30
2023-02-18T15:02:28.049Z,60.71
2023-02-18T15:05:23.093Z,61.04
2023-02-18T15:08:17.705Z,61.49
2023-02-18T15:11:04.031Z,61.62
2023-02-18T15:13:47.357Z,61.66
2023-02-18T15:16:34.202Z,62.14
2023-02-18T15:19:07.088Z,62.20
2023-02-18T15:21:43.644Z,62.45
2023-02-18T15:24:33.341Z,62.76
2023-02-18T15:27:24.041Z,62.61
2023-02-18T15:29:58.809Z,63.01
2023-02-18T15:32:32.126Z,63.03
2023-02-18T15:35:14.959Z,63.28
2023-02-18T15:37:56.734Z,63.28
2023-02-18T15:40:41.167Z,63.33
2023-02-18T15:43:18.444Z,63.62
2023-02-18T15:45:55.661Z,63.63
2023-02-18T15:48:47.908Z,63.76
2023-02-18T15:51:25.548Z,63.65
2023-02-18T15:54:00.136Z,63.68
2023-02-18T15:56:41.911Z,64.08
2023-02-18T15:59:21.850Z,64.13
2023-02-18T16:02:10.748Z,63.74
2023-02-18T16:04:48.684Z,63.55
2023-02-18T16:07:33.204Z,63.86
2023-02-18T16:10:37.293Z,63.85
2023-02-18T16:13:08.804Z,63.87
2023-02-18T16:15:41.280Z,63.68
2023-02-18T16:18:37.166Z,63.63
2023-02-18T16:21:20.477Z,63.90
2023-02-18T16:24:00.125Z,63.96
2023-02-18T16:26:45.086Z,63.92
2023-02-18T16:29:36.963Z,64.09
2023-02-18T16:32:07.455Z,64.56
2023-02-18T16:34:38.486Z,64.58
2023-02-18T16:37:31.179Z,64.64
2023-02-18T16:40:01.545Z,64.89
2023-02-18T16:42:31.327Z,65.02
2023-02-18T16:45:01.795Z,65.55
2023-02-18T16:47:31.901Z,65.80
2023-02-18T16:50:05.624Z,65.70
2023-02-18T16:52:35.654Z,66.31
2023-02-18T16:55:19.353Z,66.31
2023-02-18T16:57:52.404Z,66.17
2023-02-18T17:00:24.523Z,66.43
2023-02-18T17:02:57.535Z,66.47
2023-02-18T17:05:32.563Z,66.51
2023-02-18T17:08:27.976Z,66.36
2023-02-18T17:10:59.298Z,66.77
2023-02-18T17:13:32.007Z,66.95
2023-02-18T17:16:04.431Z,67.24
2023-02-18T17:18:34.580Z,67.48
2023-02-18T17:21:07.478Z,67.97
2023-02-18T17:23:38.890Z,67.66
2023-02-18T17:26:27.554Z,68.35
2023-02-18T17:29:00.978Z,69.17
2023-02-18T17:31:35.720Z,69.47
2023-02-18T17:34:08.625Z,69.52
2023-02-18T17:36:43.187Z,69.68
2023-02-18T17:39:18.810Z,69.67
2023-02-18T17:41:49.510Z,70.12
2023-02-18T17:44:24.257Z,70.22
2023-02-18T17:46:55.309Z,70.43
2023-02-18T17:49:25.748Z,70.24
2023-02-18T17:51:57.851Z,70.03
2023-02-18T17:54:32.343Z,70.55
2023-02-18T17:57:02.135Z,70.36
2023-02-18T17:59:35.128Z,70.34
2023-02-18T18:02:25.693Z,71.14
2023-02-18T18:04:59.921Z,70.23
2023-02-18T18:07:32.898Z,70.48
2023-02-18T18:10:02.954Z,70.55
2023-02-18T18:12:36.269Z,70.80
2023-02-18T18:15:23.899Z,70.92
2023-02-18T18:17:58.879Z,71.44
2023-02-18T18:20:32.701Z,70.92
2023-02-18T18:23:08.968Z,71.48
2023-02-18T18:25:43.494Z,71.36
2023-02-18T18:28:22.532Z,71.50
2023-02-18T18:30:56.500Z,71.27
2023-02-18T18:33:36.173Z,71.54
2023-02-18T18:36:08.308Z,71.25
2023-02-18T18:38:44.044Z,71.38
2023-02-18T18:41:19.727Z,71.24
2023-02-18T18:43:50.115Z,71.17
2023-02-18T18:46:25.512Z,71.30
2023-02-18T18:48:55.171Z,70.94
2023-02-18T18:51:30.801Z,70.90
2023-02-18T18:54:01.908Z,71.12
2023-02-18T18:56:31.335Z,70.97
2023-02-18T18:59:09.097Z,71.13
2023-02-18T19:01:40.098Z,71.32
2023-02-18T19:04:10.200Z,71.32
2023-02-18T19:06:41.205Z,71.65
2023-02-18T19:09:25.764Z,71.23
2023-02-18T19:12:04.385Z,71.41
2023-02-18T19:14:33.684Z,71.20
2023-02-18T19:17:04.571Z,71.43
2023-02-18T19:19:33.926Z,71.49
2023-02-18T19:22:09.266Z,70.87
2023-02-18T19:24:39.689Z,70.73
2023-02-18T19:27:10.701Z,70.66
2023-02-18T19:29:41.180Z,70.73
2023-02-18T19:32:11.536Z,70.85
2023-02-18T19:34:42.534Z,70.73
2023-02-18T19:37:12.675Z,70.88
2023-02-18T19:39:42.121Z,70.49
2023-02-18T19:42:56.347Z,70.23
2023-02-18T19:45:26.206Z,70.27
2023-02-18T19:48:17.698Z,69.95
2023-02-18T19:50:55.564Z,69.99
2023-02-18T19:53:26.536Z,70.05
2023-02-18T19:56:11.957Z,69.71
2023-02-18T19:58:44.754Z,69.75
2023-02-18T20:01:28.418Z,69.48
2023-02-18T20:04:11.740Z,69.30
2023-02-18T20:06:42.110Z,69.32
2023-02-18T20:09:12.896Z,69.23
2023-02-18T20:11:52.365Z,69.60
2023-02-18T20:14:24.381Z,69.34
2023-02-18T20:16:56.682Z,69.45
2023-02-18T20:19:30.910Z,69.71
2023-02-18T20:22:02.807Z,69.45
2023-02-18T20:24:32.566Z,69.91
2023-02-18T20:27:08.478Z,69.90
2023-02-18T20:33:20.069Z,70.53
2023-02-18T20:35:59.798Z,70.53
2023-02-18T20:38:31.300Z,71.03
2023-02-18T20:41:18.234Z,71.01
2023-02-18T20:43:49.222Z,71.31
2023-02-18T20:46:22.510Z,71.84
2023-02-18T20:48:52.815Z,72.22
2023-02-18T20:51:23.692Z,72.58
2023-02-18T20:54:00.287Z,72.75
2023-02-18T20:56:31.145Z,72.97
2023-02-18T20:59:02.369Z,73.37
2023-02-18T21:01:33.346Z,74.06
2023-02-18T21:04:04.326Z,74.37
2023-02-18T21:06:34.427Z,74.90
2023-02-18T21:09:06.148Z,75.00
2023-02-18T21:11:35.580Z,74.22
2023-02-18T21:14:05.986Z,73.26
2023-02-18T21:16:41.602Z,72.14
2023-02-18T21:19:17.532Z,71.22
2023-02-18T21:21:47.967Z,70.56
2023-02-18T21:24:18.354Z,70.01
2023-02-18T21:26:48.004Z,68.93
2023-02-18T21:29:17.900Z,67.96
2023-02-18T21:31:47.920Z,67.33
2023-02-18T21:34:18.131Z,66.38
2023-02-18T21:36:47.366Z,66.12
2023-02-18T21:39:17.412Z,65.63
2023-02-18T21:41:47.353Z,64.72
2023-02-18T21:44:17.372Z,64.68
2023-02-18T21:46:47.013Z,64.73
2023-02-18T21:49:18.213Z,64.64
2023-02-18T21:52:02.471Z,64.60
2023-02-18T21:54:38.013Z,65.42
2023-02-18T21:57:12.401Z,65.66
2023-02-18T21:59:42.739Z,65.90
2023-02-18T22:02:17.826Z,66.64
2023-02-18T22:04:49.568Z,67.53
2023-02-18T22:07:21.634Z,67.14
2023-02-18T22:09:54.290Z,66.89
2023-02-18T22:12:31.216Z,66.93
2023-02-18T22:15:00.945Z,67.24
2023-02-18T22:17:32.713Z,67.32
2023-02-18T22:20:05.905Z,67.59
2023-02-18T22:22:36.859Z,67.44
2023-02-18T22:25:11.151Z,67.51
2023-02-18T22:27:40.988Z,67.86
2023-02-18T22:30:21.464Z,68.75
2023-02-18T22:32:53.821Z,69.12
2023-02-18T22:35:23.885Z,70.17
2023-02-18T22:37:54.862Z,70.54
2023-02-18T22:40:27.522Z,71.30
2023-02-18T22:42:58.212Z,72.08
2023-02-18T22:45:27.655Z,72.68
2023-02-18T22:47:58.109Z,73.07
2023-02-18T22:50:31.524Z,73.83
2023-02-18T22:53:02.400Z,74.40
2023-02-18T22:55:32.742Z,74.43
2023-02-18T22:58:05.677Z,75.07
2023-02-18T23:00:38.785Z,74.77
2023-02-18T23:03:09.692Z,74.80
2023-02-18T23:05:41.843Z,74.79
2023-02-18T23:08:11.942Z,74.41
2023-02-18T23:10:42.019Z,74.24
2023-02-18T23:13:12.091Z,74.35
2023-02-18T23:15:42.051Z,74.62
2023-02-18T23:18:15.442Z,74.70
2023-02-18T23:21:05.361Z,74.96
2023-02-18T23:23:39.444Z,75.11
2023-02-18T23:26:08.667Z,75.39
2023-02-18T23:28:48.614Z,75.46
2023-02-18T23:31:25.149Z,75.48
2023-02-18T23:34:01.101Z,75.44
2023-02-18T23:36:34.024Z,75.38
2023-02-18T23:39:11.434Z,74.96
2023-02-18T23:41:41.812Z,74.93
2023-02-18T23:44:15.863Z,74.65
2023-02-18T23:46:46.757Z,74.42
2023-02-18T23:49:26.535Z,74.47
2023-02-18T23:51:58.568Z,73.78
2023-02-18T23:54:28.196Z,73.42
2023-02-18T23:56:58.098Z,73.31
2023-02-18T23:59:27.636Z,73.05
